Time;durP1;ratioP1;P1;durP2;ratioP2;P2;SDS_P1;SDS_P2;PMS_P1;PMS_P2;Temp;Humidity;BMP_temperature;BMP_pressure;BME280_temperature;BME280_humidity;BME280_pressure;Samples;Min_cycle;Max_cycle;Signal;HPM_P1;HPM_P2
2022/12/21 00:01:28;;;;;;;99.63;42.90;;;;;;;7.43;100.00;100874.22;6206825;23;20004;-84
2022/12/21 00:03:56;;;;;;;108.90;45.40;;;;;;;7.53;100.00;100894.19;6205547;23;20009;-84
2022/12/21 00:06:23;;;;;;;115.40;45.80;;;;;;;7.54;100.00;100895.88;6206362;23;20016;-84
2022/12/21 00:08:51;;;;;;;114.95;46.17;;;;;;;7.55;100.00;100899.41;6206064;23;20079;-85
2022/12/21 00:11:17;;;;;;;104.70;44.15;;;;;;;7.53;100.00;100880.94;6203925;23;20039;-85
2022/12/21 00:13:43;;;;;;;114.75;47.10;;;;;;;7.54;100.00;100876.50;6202766;23;20001;-80
2022/12/21 00:16:14;;;;;;;109.72;47.42;;;;;;;7.53;100.00;100880.06;6202625;23;20004;-84
2022/12/21 00:18:40;;;;;;;112.45;46.03;;;;;;;7.46;100.00;100864.41;6204413;23;20084;-84
2022/12/21 00:21:11;;;;;;;105.45;46.58;;;;;;;7.48;100.00;100872.28;6205523;23;20071;-84
2022/12/21 00:23:37;;;;;;;120.72;49.33;;;;;;;7.53;100.00;100883.56;6203073;23;20016;-85
2022/12/21 00:26:04;;;;;;;109.32;47.28;;;;;;;7.52;100.00;100873.88;6206347;23;20001;-85
2022/12/21 00:28:30;;;;;;;117.07;48.95;;;;;;;7.52;100.00;100889.78;6204505;23;20004;-85
2022/12/21 00:31:07;;;;;;;140.35;52.22;;;;;;;7.52;100.00;100884.47;6205504;23;20016;-86
2022/12/21 00:33:33;;;;;;;143.23;53.20;;;;;;;7.44;100.00;100863.59;6205463;23;20008;-85
2022/12/21 00:36:00;;;;;;;129.85;50.88;;;;;;;7.53;100.00;100872.13;6206667;23;20055;-84
2022/12/21 00:38:26;;;;;;;152.70;53.60;;;;;;;7.51;100.00;100871.31;6202160;23;20548;-84
2022/12/21 00:40:59;;;;;;;130.65;53.40;;;;;;;7.52;100.00;100883.63;6202423;23;20014;-84
2022/12/21 00:43:25;;;;;;;147.60;52.83;;;;;;;7.45;100.00;100867.09;6201128;23;20009;-84
2022/12/21 00:45:50;;;;;;;179.15;58.83;;;;;;;7.50;100.00;100878.38;6206731;23;20051;-84
2022/12/21 00:48:15;;;;;;;128.57;52.85;;;;;;;7.48;100.00;100882.88;6229061;23;20020;-85
2022/12/21 00:50:40;;;;;;;163.52;56.25;;;;;;;7.51;100.00;100887.19;6206248;23;20001;-84
2022/12/21 00:53:06;;;;;;;145.77;55.70;;;;;;;7.53;100.00;100890.66;6204019;23;20043;-84
2022/12/21 00:55:31;;;;;;;138.18;54.97;;;;;;;7.51;100.00;100890.69;6205134;23;20008;-86
2022/12/21 00:57:59;;;;;;;185.85;59.50;;;;;;;7.53;100.00;100894.19;6206790;23;20009;-85
2022/12/21 01:00:24;;;;;;;153.20;55.78;;;;;;;7.53;100.00;100899.47;6205233;23;20008;-85
2022/12/21 01:02:49;;;;;;;122.57;52.30;;;;;;;7.52;100.00;100907.44;6204546;23;20011;-85
2022/12/21 01:05:14;;;;;;;130.48;54.55;;;;;;;7.50;100.00;100907.53;6205723;23;20067;-85
2022/12/21 01:07:40;;;;;;;152.23;58.15;;;;;;;7.51;100.00;100903.94;6206369;23;20016;-85
2022/12/21 01:10:06;;;;;;;146.52;57.50;;;;;;;7.42;100.00;100899.84;6207271;23;20426;-85
2022/12/21 01:12:31;;;;;;;146.20;57.88;;;;;;;7.47;100.00;100908.50;6204528;23;20008;-86
2022/12/21 01:14:56;;;;;;;138.13;59.30;;;;;;;7.46;100.00;100911.19;6205823;23;20008;-85
2022/12/21 01:17:21;;;;;;;140.05;56.95;;;;;;;7.42;100.00;100914.88;6204866;23;20004;-84
2022/12/21 01:19:49;;;;;;;142.32;59.35;;;;;;;7.38;100.00;100907.97;6204746;23;20097;-83
2022/12/21 01:22:15;;;;;;;141.10;57.15;;;;;;;7.39;100.00;100915.00;6204611;23;20511;-84
2022/12/21 01:24:40;;;;;;;122.63;56.05;;;;;;;7.30;100.00;100899.44;6205927;23;20005;-85
2022/12/21 01:27:05;;;;;;;134.88;56.88;;;;;;;7.40;100.00;100916.75;6207728;23;20011;-84
2022/12/21 01:29:30;;;;;;;164.88;60.00;;;;;;;7.36;100.00;100899.25;6207653;23;20024;-85
2022/12/21 01:31:56;;;;;;;152.93;56.20;;;;;;;7.37;100.00;100907.13;6205309;23;20063;-83
2022/12/21 01:34:21;;;;;;;182.98;62.20;;;;;;;7.40;100.00;100906.16;6205490;23;20118;-85
2022/12/21 01:36:46;;;;;;;227.02;61.88;;;;;;;7.33;100.00;100899.34;6205580;23;20062;-83
2022/12/21 01:39:11;;;;;;;151.48;58.22;;;;;;;7.39;100.00;100915.84;6206399;23;20115;-85
2022/12/21 01:41:37;;;;;;;195.43;59.75;;;;;;;7.35;100.00;100908.94;6211176;23;20011;-85
2022/12/21 01:44:04;;;;;;;179.00;60.67;;;;;;;7.40;100.00;100917.59;6219063;23;20015;-85
2022/12/21 01:46:41;;;;;;;205.93;63.30;;;;;;;7.40;100.00;100917.59;6221643;23;20060;-85
2022/12/21 01:49:24;;;;;;;195.70;63.72;;;;;;;7.40;100.00;100922.91;6223753;23;20446;-85
2022/12/21 01:51:55;;;;;;;148.35;59.22;;;;;;;7.29;100.00;100903.00;6232272;23;20027;-85
2022/12/21 01:54:27;;;;;;;188.13;62.63;;;;;;;7.40;100.00;100927.34;6226162;23;19988;-84
2022/12/21 01:56:56;;;;;;;161.85;60.50;;;;;;;7.40;100.00;100912.31;6209183;23;20012;-84
2022/12/21 01:59:42;;;;;;;144.98;57.83;;;;;;;7.41;100.00;100915.81;6206522;23;20005;-84
2022/12/21 02:02:13;;;;;;;201.63;63.63;;;;;;;7.36;100.00;100902.75;6207016;23;20001;-85
2022/12/21 02:04:40;;;;;;;161.73;58.67;;;;;;;7.16;100.00;100884.94;6205504;23;20019;-84
2022/12/21 02:07:06;;;;;;;143.65;55.78;;;;;;;7.33;100.00;100907.28;6206703;23;20004;-86
2022/12/21 02:09:34;;;;;;;153.52;56.58;;;;;;;7.33;100.00;100913.44;6207267;23;20079;-85
2022/12/21 02:12:03;;;;;;;187.60;63.35;;;;;;;7.32;100.00;100906.41;6206482;23;20011;-85
2022/12/21 02:14:32;;;;;;;156.45;58.28;;;;;;;7.34;100.00;100904.56;6204672;23;20001;-85
2022/12/21 02:17:20;;;;;;;189.88;62.53;;;;;;;7.34;100.00;100906.34;6207536;23;20307;-85
2022/12/21 02:19:55;;;;;;;214.07;64.40;;;;;;;7.33;100.00;100904.63;6206173;23;20008;-85
2022/12/21 02:22:43;;;;;;;193.95;60.80;;;;;;;7.28;100.00;100906.59;6203488;23;20004;-85
2022/12/21 02:25:31;;;;;;;198.68;59.65;;;;;;;7.28;100.00;100906.59;6204646;23;20084;-85
2022/12/21 02:28:07;;;;;;;170.15;61.45;;;;;;;7.32;100.00;100916.16;6208340;23;20094;-85
2022/12/21 02:30:58;;;;;;;192.57;63.55;;;;;;;7.33;100.00;100920.53;6208849;23;20001;-85
2022/12/21 02:33:47;;;;;;;172.18;62.00;;;;;;;7.33;100.00;100912.56;6228523;23;19997;-84
2022/12/21 02:36:27;;;;;;;166.82;62.25;;;;;;;7.26;100.00;100901.34;6227812;23;20068;-84
2022/12/21 02:39:05;;;;;;;188.50;63.28;;;;;;;7.25;100.00;100910.19;6232208;22;20012;-85
2022/12/21 02:41:59;;;;;;;194.13;61.47;;;;;;;7.27;100.00;100905.69;6231412;22;19996;-84
2022/12/21 02:44:46;;;;;;;176.65;64.10;;;;;;;7.20;100.00;100896.28;6203462;23;20008;-85
2022/12/21 02:47:14;;;;;;;179.25;64.32;;;;;;;7.22;100.00;100895.28;6207482;23;20704;-85
2022/12/21 02:49:46;;;;;;;224.90;66.43;;;;;;;7.24;100.00;100895.25;6207450;23;20457;-84
2022/12/21 02:52:20;;;;;;;204.88;66.60;;;;;;;7.17;100.00;100883.13;6204925;23;20009;-85
2022/12/21 02:54:45;;;;;;;244.63;68.72;;;;;;;7.20;100.00;100898.91;6209011;23;20027;-84
2022/12/21 02:57:11;;;;;;;179.02;64.90;;;;;;;7.20;100.00;100907.72;6209754;23;20001;-85
2022/12/21 02:59:44;;;;;;;222.32;67.90;;;;;;;7.15;100.00;100900.88;6209000;23;20004;-85
2022/12/21 03:02:37;;;;;;;199.60;65.85;;;;;;;7.21;100.00;100905.94;6209025;23;20014;-84
2022/12/21 03:05:14;;;;;;;191.55;63.17;;;;;;;7.22;100.00;100905.00;6209130;23;20012;-86
2022/12/21 03:07:58;;;;;;;198.40;65.25;;;;;;;7.24;100.00;100906.69;6207492;23;20016;-86
2022/12/21 03:11:02;;;;;;;201.98;66.25;;;;;;;7.24;100.00;100900.53;6207197;23;20454;-84
2022/12/21 03:13:48;;;;;;;163.47;62.67;;;;;;;7.24;100.00;100900.53;6206200;23;20000;-85
2022/12/21 03:16:40;;;;;;;207.45;66.10;;;;;;;7.22;100.00;100895.28;6206118;23;20004;-85
2022/12/21 03:19:33;;;;;;;197.02;65.20;;;;;;;7.18;100.00;100884.88;6208076;23;20012;-84
2022/12/21 03:22:04;;;;;;;220.63;66.35;;;;;;;7.18;100.00;100887.50;6205891;23;20001;-85
2022/12/21 03:24:36;;;;;;;267.02;68.93;;;;;;;7.20;100.00;100883.91;6207341;23;20019;-85
2022/12/21 03:27:13;;;;;;;238.15;68.70;;;;;;;7.17;100.00;100880.50;6208596;23;20004;-85
2022/12/21 03:29:43;;;;;;;191.68;63.38;;;;;;;7.16;100.00;100892.88;6207831;23;20011;-85
2022/12/21 03:32:15;;;;;;;218.85;65.38;;;;;;;7.16;100.00;100887.56;6203367;23;20005;-85
2022/12/21 03:34:45;;;;;;;255.45;66.88;;;;;;;7.13;100.00;100868.28;6205128;23;20015;-85
2022/12/21 03:37:38;;;;;;;168.10;59.00;;;;;;;7.18;100.00;100882.22;6206252;23;20413;-85
2022/12/21 03:40:25;;;;;;;192.87;62.40;;;;;;;7.07;100.00;100864.09;6202955;23;20537;-85
2022/12/21 03:43:11;;;;;;;162.05;58.67;;;;;;;7.11;100.00;100883.38;6205799;23;20247;-85
2022/12/21 03:45:47;;;;;;;151.82;59.22;;;;;;;7.14;100.00;100901.78;6205647;23;20000;-85
2022/12/21 03:48:20;;;;;;;144.07;58.75;;;;;;;7.07;100.00;100893.19;6215055;23;20004;-84
2022/12/21 03:50:49;;;;;;;178.07;59.13;;;;;;;7.13;100.00;100898.25;6215564;23;20395;-84
2022/12/21 03:53:42;;;;;;;157.30;58.83;;;;;;;7.13;100.00;100889.47;6212739;23;20024;-84
2022/12/21 03:56:13;;;;;;;162.25;57.85;;;;;;;6.92;100.00;100862.84;6211756;23;20052;-83
2022/12/21 03:58:38;;;;;;;142.70;54.90;;;;;;;7.08;100.00;100873.75;6204435;23;20094;-84
2022/12/21 04:01:32;;;;;;;120.47;50.85;;;;;;;7.07;100.00;100889.69;6205782;23;20087;-84
2022/12/21 04:04:06;;;;;;;125.78;51.55;;;;;;;7.03;100.00;100886.28;6208222;23;20008;-84
2022/12/21 04:06:34;;;;;;;126.00;50.08;;;;;;;6.97;100.00;100867.97;6206276;23;19988;-85
2022/12/21 04:09:01;;;;;;;111.93;47.00;;;;;;;6.95;100.00;100873.31;6209988;23;20337;-84
2022/12/21 04:14:17;;;;;;;97.43;43.65;;;;;;;6.88;100.00;100885.03;6210945;23;20003;-85
2022/12/21 04:16:43;;;;;;;97.20;43.00;;;;;;;6.89;100.00;100877.97;6216284;23;20382;-85
2022/12/21 04:21:52;;;;;;;117.82;45.60;;;;;;;6.85;100.00;100869.25;6213611;23;20436;-85
2022/12/21 04:29:46;;;;;;;99.75;45.15;;;;;;;6.81;100.00;100874.72;6206594;23;20015;-82
2022/12/21 04:32:12;;;;;;;90.45;40.75;;;;;;;6.76;100.00;100876.66;6204850;23;20327;-84
2022/12/21 04:34:37;;;;;;;89.50;40.63;;;;;;;6.68;100.00;100867.19;6206460;23;20004;-84
2022/12/21 04:39:46;;;;;;;92.38;40.03;;;;;;;6.71;100.00;100872.38;6206717;23;20020;-84
2022/12/21 04:42:11;;;;;;;89.47;39.58;;;;;;;6.69;100.00;100860.16;6205165;23;20012;-84
2022/12/21 04:44:37;;;;;;;81.38;38.08;;;;;;;6.70;100.00;100859.22;6206859;23;20098;-85
2022/12/21 04:47:02;;;;;;;85.65;39.97;;;;;;;6.67;100.00;100870.78;6208361;23;20001;-85
2022/12/21 04:49:27;;;;;;;99.13;39.97;;;;;;;6.69;100.00;100862.81;6206681;23;20007;-85
2022/12/21 04:51:53;;;;;;;102.15;40.80;;;;;;;6.72;100.00;100863.53;6205642;23;20004;-84
2022/12/21 04:54:18;;;;;;;93.15;39.13;;;;;;;6.67;100.00;100851.38;6203728;23;20012;-84
2022/12/21 04:56:44;;;;;;;94.85;39.42;;;;;;;6.68;100.00;100856.63;6206419;23;20043;-84
2022/12/21 04:59:09;;;;;;;108.50;40.28;;;;;;;6.65;100.00;100832.94;6205887;23;20092;-85
2022/12/21 05:01:34;;;;;;;94.22;38.20;;;;;;;6.70;100.00;100852.16;6204367;23;20381;-83
2022/12/21 05:04:00;;;;;;;91.72;38.38;;;;;;;6.69;100.00;100849.56;6206746;23;20004;-82
2022/12/21 05:06:25;;;;;;;91.75;37.47;;;;;;;6.67;100.00;100854.91;6204616;23;20000;-85
2022/12/21 05:08:50;;;;;;;82.63;35.90;;;;;;;6.68;100.00;100853.13;6204379;23;20358;-84
2022/12/21 05:11:21;;;;;;;82.85;34.92;;;;;;;6.67;100.00;100856.69;6204106;23;20040;-84
2022/12/21 05:13:47;;;;;;;80.95;35.30;;;;;;;6.60;100.00;100836.66;6206688;23;20001;-83
2022/12/21 05:16:18;;;;;;;74.35;32.95;;;;;;;6.64;100.00;100862.94;6206321;23;20059;-85
2022/12/21 05:18:44;;;;;;;69.45;31.20;;;;;;;6.60;100.00;100871.03;6206247;23;20000;-84
2022/12/21 05:21:10;;;;;;;83.30;32.58;;;;;;;6.57;100.00;100861.44;6205826;23;20024;-84
2022/12/21 05:23:37;;;;;;;71.35;30.27;;;;;;;6.56;100.00;100857.03;6205441;23;20004;-83
2022/12/21 05:26:04;;;;;;;71.65;30.08;;;;;;;6.54;100.00;100853.59;6206676;23;20027;-83
2022/12/21 05:28:29;;;;;;;67.07;28.77;;;;;;;6.47;100.00;100845.00;6203974;23;20511;-84
2022/12/21 05:30:54;;;;;;;56.83;26.83;;;;;;;6.50;100.00;100846.69;6204434;23;20040;-83
2022/12/21 05:33:20;;;;;;;55.30;24.48;;;;;;;6.44;100.00;100847.75;6201164;23;20376;-84
2022/12/21 05:35:45;;;;;;;54.85;25.33;;;;;;;6.41;100.00;100858.44;6205320;23;20017;-83
2022/12/21 05:38:10;;;;;;;53.17;23.10;;;;;;;6.40;100.00;100862.00;6204317;23;20036;-84
2022/12/21 05:40:36;;;;;;;50.60;23.88;;;;;;;6.29;100.00;100850.06;6205399;23;20019;-85
2022/12/21 05:43:02;;;;;;;51.67;23.55;;;;;;;6.31;100.00;100848.19;6207362;23;20384;-86
2022/12/21 05:45:27;;;;;;;54.25;24.67;;;;;;;6.30;100.00;100851.78;6199671;23;19996;-83
2022/12/21 05:47:56;;;;;;;55.92;23.45;;;;;;;6.33;100.00;100859.59;6206308;23;20070;-84
2022/12/21 05:50:22;;;;;;;54.20;24.15;;;;;;;6.28;100.00;100853.63;6206024;23;20013;-84
2022/12/21 05:52:48;;;;;;;44.13;21.15;;;;;;;6.25;100.00;100849.28;6207132;23;20007;-84
2022/12/21 05:55:13;;;;;;;50.85;22.25;;;;;;;6.26;100.00;100843.06;6207583;23;20008;-84
2022/12/21 05:57:38;;;;;;;50.28;22.20;;;;;;;6.28;100.00;100849.19;6208012;23;20082;-85
2022/12/21 06:00:05;;;;;;;45.15;20.75;;;;;;;6.23;100.00;100848.47;6208160;23;20000;-85
2022/12/21 06:02:31;;;;;;;48.50;20.70;;;;;;;6.23;100.00;100849.34;6207772;23;20016;-85
2022/12/21 06:04:56;;;;;;;44.25;20.92;;;;;;;6.21;100.00;100850.28;6206188;23;20011;-85
2022/12/21 06:07:21;;;;;;;42.83;20.30;;;;;;;6.14;100.00;100836.41;6205893;23;20039;-86
2022/12/21 06:09:47;;;;;;;37.70;19.63;;;;;;;6.09;100.00;100837.47;6209904;23;20005;-85
2022/12/21 06:12:12;;;;;;;39.85;19.92;;;;;;;6.14;100.00;100846.13;6212287;23;20007;-85
2022/12/21 06:14:37;;;;;;;47.30;20.63;;;;;;;6.19;100.00;100847.72;6210619;23;20555;-84
2022/12/21 06:17:03;;;;;;;42.08;20.02;;;;;;;6.13;100.00;100831.19;6214401;23;20032;-85
2022/12/21 06:19:28;;;;;;;40.40;19.90;;;;;;;6.12;100.00;100842.66;6217560;23;20291;-85
2022/12/21 06:21:54;;;;;;;45.60;20.77;;;;;;;6.11;100.00;100836.53;6226507;23;20029;-84
2022/12/21 06:24:19;;;;;;;46.88;19.65;;;;;;;6.17;100.00;100840.75;6227129;23;20009;-84
2022/12/21 06:26:45;;;;;;;47.35;20.05;;;;;;;6.13;100.00;100839.09;6227887;23;19996;-84
2022/12/21 06:29:10;;;;;;;46.33;21.40;;;;;;;6.12;100.00;100843.53;6229601;23;19988;-84
2022/12/21 06:31:35;;;;;;;42.78;21.10;;;;;;;5.99;100.00;100814.00;6225817;23;20027;-85
2022/12/21 06:34:01;;;;;;;52.63;22.63;;;;;;;6.14;100.00;100833.75;6212843;23;20011;-85
2022/12/21 06:36:26;;;;;;;54.53;23.38;;;;;;;6.07;100.00;100821.69;6206147;23;20016;-84
2022/12/21 06:38:51;;;;;;;54.22;23.55;;;;;;;6.10;100.00;100829.50;6208091;23;20008;-84
2022/12/21 06:41:18;;;;;;;53.72;24.02;;;;;;;6.01;100.00;100823.66;6206457;23;20020;-85
2022/12/21 06:43:44;;;;;;;51.63;24.30;;;;;;;6.02;100.00;100830.66;6207728;23;20261;-85
2022/12/21 06:46:15;;;;;;;59.80;26.38;;;;;;;6.07;100.00;100839.31;6208949;23;20032;-84
2022/12/21 06:48:41;;;;;;;51.78;26.42;;;;;;;5.93;100.00;100819.47;6211371;23;20004;-85
2022/12/21 06:51:13;;;;;;;60.67;27.45;;;;;;;5.97;100.00;100834.31;6217151;23;20024;-84
2022/12/21 06:53:42;;;;;;;63.05;27.77;;;;;;;6.02;100.00;100841.22;6217234;23;20475;-85
2022/12/21 06:56:10;;;;;;;64.97;28.70;;;;;;;6.11;100.00;100851.53;6212668;23;20051;-84
2022/12/21 06:58:36;;;;;;;62.30;28.52;;;;;;;6.03;100.00;100841.19;6207278;23;20013;-83
2022/12/21 07:01:06;;;;;;;73.15;29.73;;;;;;;6.13;100.00;100865.53;6207320;23;20330;-84
2022/12/21 07:03:31;;;;;;;70.65;29.45;;;;;;;6.02;100.00;100851.78;6206510;23;20008;-84
2022/12/21 07:05:56;;;;;;;66.88;29.67;;;;;;;6.09;100.00;100864.75;6206804;23;20001;-84
2022/12/21 07:08:22;;;;;;;65.72;30.75;;;;;;;6.07;100.00;100860.47;6206464;23;20012;-84
2022/12/21 07:10:48;;;;;;;75.75;31.33;;;;;;;6.07;100.00;100857.81;6205136;23;20434;-84
2022/12/21 07:13:13;;;;;;;76.20;32.72;;;;;;;6.07;100.00;100861.31;6206785;23;20009;-83
2022/12/21 07:15:38;;;;;;;78.80;32.63;;;;;;;6.14;100.00;100861.97;6204922;23;20088;-83
2022/12/21 07:18:04;;;;;;;67.82;32.53;;;;;;;6.15;100.00;100874.28;6204755;23;20012;-84
2022/12/21 07:20:29;;;;;;;71.88;31.67;;;;;;;5.98;100.00;100854.56;6202733;23;20135;-85
2022/12/21 07:22:54;;;;;;;66.53;30.25;;;;;;;6.06;100.00;100867.53;6206168;23;20008;-84
2022/12/21 07:25:20;;;;;;;61.00;29.73;;;;;;;6.06;100.00;100875.44;6200623;23;20004;-86
2022/12/21 07:27:45;;;;;;;70.50;29.80;;;;;;;6.06;100.00;100870.16;6206730;23;20004;-86
2022/12/21 07:30:11;;;;;;;60.92;27.80;;;;;;;6.03;100.00;100869.41;6205366;23;20004;-84
2022/12/21 07:32:36;;;;;;;60.95;28.33;;;;;;;6.03;100.00;100867.63;6203691;23;20518;-85
2022/12/21 07:35:03;;;;;;;61.28;27.05;;;;;;;6.02;100.00;100867.66;6206038;23;20029;-86
2022/12/21 07:37:28;;;;;;;65.93;28.33;;;;;;;6.02;100.00;100880.84;6206237;23;20365;-84
2022/12/21 07:39:53;;;;;;;69.85;30.30;;;;;;;6.03;100.00;100887.91;6206247;23;20016;-85
2022/12/21 07:42:19;;;;;;;64.55;30.40;;;;;;;5.99;100.00;100895.91;6203820;23;20004;-84
2022/12/21 07:44:44;;;;;;;77.20;32.28;;;;;;;6.02;100.00;100904.63;6206565;23;20422;-85
2022/12/21 07:47:09;;;;;;;72.75;31.95;;;;;;;6.02;100.00;100904.63;6205202;23;20390;-86
2022/12/21 07:49:35;;;;;;;74.97;32.67;;;;;;;6.02;100.00;100905.53;6204083;23;20088;-84
2022/12/21 07:52:01;;;;;;;74.55;34.08;;;;;;;6.01;100.00;100903.78;6205814;23;20684;-85
2022/12/21 07:54:26;;;;;;;83.53;34.72;;;;;;;6.06;100.00;100904.53;6204806;23;20479;-85
2022/12/21 07:56:52;;;;;;;79.45;35.83;;;;;;;5.98;100.00;100901.25;6205813;23;20004;-85
2022/12/21 07:59:18;;;;;;;79.38;34.17;;;;;;;6.05;100.00;100926.53;6202644;23;20178;-86
2022/12/21 08:01:43;;;;;;;80.25;34.47;;;;;;;5.98;100.00;100912.69;6204385;23;20039;-85
2022/12/21 08:04:09;;;;;;;84.15;35.42;;;;;;;6.06;100.00;100930.06;6206633;23;20004;-85
2022/12/21 08:06:34;;;;;;;70.05;32.40;;;;;;;6.04;100.00;100937.19;6204272;23;20009;-84
2022/12/21 08:09:00;;;;;;;78.40;33.47;;;;;;;5.97;100.00;100925.91;6206963;23;20031;-86
2022/12/21 08:11:25;;;;;;;75.53;32.35;;;;;;;6.01;100.00;100932.84;6204983;23;20012;-85
2022/12/21 08:13:50;;;;;;;69.28;31.15;;;;;;;5.96;100.00;100917.13;6205832;23;20367;-84
2022/12/21 08:16:17;;;;;;;68.70;31.77;;;;;;;6.02;100.00;100917.84;6202168;23;20008;-84
2022/12/21 08:18:43;;;;;;;71.28;30.83;;;;;;;5.96;100.00;100903.06;6203255;23;20008;-84
2022/12/21 08:21:09;;;;;;;64.00;29.13;;;;;;;5.98;100.00;100902.13;6205247;23;20011;-86
2022/12/21 08:23:35;;;;;;;67.47;28.20;;;;;;;5.97;100.00;100907.41;6202424;23;20025;-86
2022/12/21 08:26:05;;;;;;;67.20;29.35;;;;;;;5.98;100.00;100923.25;6203551;23;20004;-84
2022/12/21 08:28:31;;;;;;;67.30;28.40;;;;;;;5.97;100.00;100929.41;6204850;23;19992;-86
2022/12/21 08:31:18;;;;;;;60.13;27.40;;;;;;;6.00;100.00;100933.75;6219223;23;20524;-86
2022/12/21 08:33:45;;;;;;;60.15;28.67;;;;;;;5.99;100.00;100935.53;6220702;23;19988;-85
2022/12/21 08:36:12;;;;;;;59.25;26.23;;;;;;;5.93;100.00;100933.06;6212906;23;20032;-84
2022/12/21 08:38:38;;;;;;;59.53;25.92;;;;;;;5.95;100.00;100925.97;6200121;23;20721;-85
2022/12/21 08:41:04;;;;;;;52.63;26.48;;;;;;;6.03;100.00;100936.31;6197975;23;20015;-83
2022/12/21 08:43:30;;;;;;;59.00;26.90;;;;;;;5.96;100.00;100910.97;6199438;23;20379;-84
2022/12/21 08:45:55;;;;;;;63.47;27.48;;;;;;;6.11;100.00;100925.50;6204415;23;20088;-86
2022/12/21 08:48:21;;;;;;;56.70;25.88;;;;;;;6.08;100.00;100921.19;6202271;23;20058;-86
2022/12/21 08:50:52;;;;;;;53.35;25.67;;;;;;;6.21;100.00;100927.81;6206356;23;20005;-86
2022/12/21 08:53:18;;;;;;;55.05;25.58;;;;;;;6.24;100.00;100933.00;6202390;23;20087;-86
2022/12/21 08:55:43;;;;;;;52.53;26.10;;;;;;;6.26;100.00;100940.00;6208199;23;20036;-86
2022/12/21 08:58:08;;;;;;;50.55;25.17;;;;;;;6.21;100.00;100926.94;6207505;23;20005;-86
2022/12/21 09:00:34;;;;;;;54.55;26.67;;;;;;;6.25;100.00;100933.84;6207213;23;20013;-86
2022/12/21 09:03:00;;;;;;;54.65;25.98;;;;;;;6.26;100.00;100940.88;6207827;23;20434;-88
2022/12/21 09:05:25;;;;;;;53.25;26.95;;;;;;;6.22;100.00;100929.53;6204881;23;20012;-85
2022/12/21 09:07:50;;;;;;;54.10;27.95;;;;;;;6.29;100.00;100940.78;6206306;23;20465;-86
2022/12/21 09:10:16;;;;;;;63.63;28.95;;;;;;;6.34;100.00;100940.63;6207582;23;20482;-86
2022/12/21 09:12:42;;;;;;;59.97;28.50;;;;;;;6.34;100.00;100940.63;6204504;23;20013;-85
2022/12/21 09:15:07;;;;;;;56.63;26.75;;;;;;;6.32;100.00;100921.31;6207726;23;20053;-85
2022/12/21 09:17:39;;;;;;;60.72;27.85;;;;;;;6.38;100.00;100927.25;6210685;23;20571;-85
2022/12/21 09:20:05;;;;;;;66.28;29.15;;;;;;;6.41;100.00;100928.97;6208731;23;20009;-85
2022/12/21 09:22:30;;;;;;;71.25;29.42;;;;;;;6.47;100.00;100932.25;6210596;23;20009;-85
2022/12/21 09:24:56;;;;;;;53.42;27.83;;;;;;;6.46;100.00;100921.72;6208701;23;20059;-85
2022/12/21 09:27:21;;;;;;;50.55;27.65;;;;;;;6.45;100.00;100930.59;6208734;23;20422;-85
2022/12/21 09:29:47;;;;;;;55.50;27.20;;;;;;;6.51;100.00;100933.03;6209245;23;20135;-86
2022/12/21 09:32:12;;;;;;;54.30;26.17;;;;;;;6.52;100.00;100936.53;6204907;23;20036;-87
2022/12/21 09:34:37;;;;;;;53.05;27.88;;;;;;;6.53;100.00;100935.63;6207481;23;20051;-85
2022/12/21 09:37:03;;;;;;;55.05;27.90;;;;;;;6.63;100.00;100929.13;6207655;23;20008;-86
2022/12/21 09:39:28;;;;;;;52.13;26.65;;;;;;;6.63;100.00;100918.53;6204792;23;20160;-85
2022/12/21 09:42:03;;;;;;;50.47;25.60;;;;;;;6.70;100.00;100930.66;6207662;23;20012;-86
2022/12/21 09:44:50;;;;;;;51.88;26.52;;;;;;;6.72;100.00;100929.66;6205742;23;20001;-85
2022/12/21 09:47:19;;;;;;;51.35;26.60;;;;;;;6.60;100.00;100915.97;6206001;23;20004;-85
2022/12/21 09:49:53;;;;;;;48.83;24.38;;;;;;;6.61;100.00;100936.25;6207029;23;20083;-86
2022/12/21 09:52:38;;;;;;;41.95;22.73;;;;;;;6.55;100.00;100937.28;6206918;23;20199;-85
2022/12/21 09:55:14;;;;;;;45.08;22.42;;;;;;;6.55;100.00;100960.22;6212694;23;20020;-86
2022/12/21 09:57:39;;;;;;;44.97;22.42;;;;;;;6.48;100.00;100936.66;6216250;23;20019;-85
2022/12/21 10:00:16;;;;;;;45.30;23.40;;;;;;;6.55;100.00;100939.94;6216942;23;20057;-85
2022/12/21 10:03:04;;;;;;;42.55;22.15;;;;;;;6.56;100.00;100946.09;6208663;23;19996;-85
2022/12/21 10:05:51;;;;;;;49.65;22.30;;;;;;;6.56;100.00;100954.03;6218740;23;20001;-86
2022/12/21 10:08:33;;;;;;;44.53;21.58;;;;;;;6.54;100.00;100950.56;6222813;23;20248;-85
2022/12/21 10:11:25;;;;;;;44.25;22.50;;;;;;;6.47;100.00;100934.91;6224002;23;20001;-85
2022/12/21 10:14:15;;;;;;;43.00;21.30;;;;;;;6.59;100.00;100957.44;6232892;22;19993;-85
2022/12/21 10:17:05;;;;;;;40.47;21.08;;;;;;;6.65;100.00;100945.81;6223713;22;20039;-86
2022/12/21 10:19:34;;;;;;;40.75;21.13;;;;;;;6.70;100.00;100942.09;6208092;23;20008;-85
2022/12/21 10:22:08;;;;;;;43.92;21.45;;;;;;;6.66;100.00;100947.53;6209582;23;20005;-86
2022/12/21 10:24:56;;;;;;;43.35;20.98;;;;;;;6.74;100.00;100959.59;6207137;23;20012;-86
2022/12/21 10:27:40;;;;;;;42.35;20.30;;;;;;;6.68;100.00;100945.69;6205276;23;20008;-86
2022/12/21 10:30:11;;;;;;;36.85;19.45;;;;;;;6.76;100.00;100948.94;6208855;23;20043;-85
2022/12/21 10:32:38;;;;;;;36.13;19.45;;;;;;;6.74;100.00;100942.84;6206420;23;20313;-86
2022/12/21 10:35:26;;;;;;;33.47;20.08;;;;;;;6.86;100.00;100949.53;6207870;23;20016;-86
2022/12/21 10:37:54;;;;;;;37.22;19.38;;;;;;;6.85;100.00;100945.13;6206728;23;20028;-86
2022/12/21 10:40:25;;;;;;;38.63;20.27;;;;;;;6.88;100.00;100937.94;6205175;23;20004;-87
2022/12/21 10:42:53;;;;;;;37.10;19.10;;;;;;;6.95;100.00;100935.97;6207989;23;20027;-87
2022/12/21 10:45:20;;;;;;;39.58;19.17;;;;;;;7.06;100.00;100939.09;6207730;23;19997;-85
2022/12/21 10:47:46;;;;;;;34.67;18.85;;;;;;;7.08;100.00;100933.75;6209381;23;20012;-86
2022/12/21 10:50:16;;;;;;;35.67;18.67;;;;;;;7.04;100.00;100932.13;6216193;23;20031;-85
2022/12/21 10:52:48;;;;;;;32.35;17.70;;;;;;;7.05;100.00;100918.84;6214452;23;20011;-85
2022/12/21 10:55:36;;;;;;;29.88;16.88;;;;;;;7.01;100.00;100919.00;6215351;23;20008;-85
2022/12/21 10:58:02;;;;;;;32.28;17.23;;;;;;;6.99;100.00;100909.34;6208071;23;20055;-88
2022/12/21 11:00:30;;;;;;;30.55;17.23;;;;;;;6.97;100.00;100913.81;6208853;23;20012;-85
2022/12/21 11:02:58;;;;;;;32.10;18.30;;;;;;;6.95;100.00;100899.78;6209829;23;20050;-86
2022/12/21 11:05:25;;;;;;;37.75;18.75;;;;;;;6.96;100.00;100904.16;6208502;23;20013;-87
2022/12/21 11:07:51;;;;;;;32.08;18.67;;;;;;;7.06;100.00;100902.03;6207358;23;20043;-86
2022/12/21 11:10:27;;;;;;;32.83;18.15;;;;;;;7.11;100.00;100915.13;6207748;23;20000;-87
2022/12/21 11:12:52;;;;;;;35.95;18.90;;;;;;;6.99;100.00;100890.81;6208912;23;20020;-86
2022/12/21 11:15:21;;;;;;;37.55;19.52;;;;;;;7.13;100.00;100910.63;6206906;23;20004;-87
2022/12/21 11:17:46;;;;;;;38.85;20.40;;;;;;;7.15;100.00;100914.09;6206753;23;20008;-86
2022/12/21 11:20:20;;;;;;;37.45;18.33;;;;;;;7.14;100.00;100894.69;6205926;23;20041;-87
2022/12/21 11:22:49;;;;;;;35.13;19.08;;;;;;;7.23;100.00;100909.38;6207876;23;20024;-87
2022/12/21 11:25:19;;;;;;;33.60;17.52;;;;;;;7.26;100.00;100908.41;6206649;23;20001;-86
2022/12/21 11:27:48;;;;;;;34.42;17.65;;;;;;;7.29;100.00;100916.25;6208032;23;20191;-85
2022/12/21 11:30:24;;;;;;;37.05;17.83;;;;;;;7.30;100.00;100910.91;6206368;23;20084;-86
2022/12/21 11:32:52;;;;;;;37.08;18.48;;;;;;;7.31;100.00;100902.03;6205750;23;20007;-86